Time;durP1;ratioP1;P1;durP2;ratioP2;P2;SDS_P1;SDS_P2;PMS_P1;PMS_P2;Temp;Humidity;BMP_temperature;BMP_pressure;BME280_temperature;BME280_humidity;BME280_pressure;Samples;Min_cycle;Max_cycle;Signal;HPM_P1;HPM_P2
2022/05/25 00:02:25;;;;;;;14.88;9.88;;;;;;;11.45;100.00;101136.34;4991961;28;20038;-60
2022/05/25 00:04:54;;;;;;;12.93;9.40;;;;;;;11.37;100.00;101131.59;4992807;28;20223;-60
2022/05/25 00:07:23;;;;;;;11.45;9.02;;;;;;;11.31;100.00;101130.19;4992124;28;20053;-60
2022/05/25 00:09:52;;;;;;;12.60;9.70;;;;;;;11.26;100.00;101134.91;4991894;28;20045;-62
2022/05/25 00:12:21;;;;;;;13.40;9.05;;;;;;;11.22;100.00;101137.81;4988766;28;20461;-60
2022/05/25 00:14:50;;;;;;;12.77;8.38;;;;;;;11.17;100.00;101140.75;4988265;28;20050;-60
2022/05/25 00:17:18;;;;;;;14.68;8.75;;;;;;;11.17;100.00;101140.75;4992280;28;20477;-60
2022/05/25 00:20:01;;;;;;;12.95;9.10;;;;;;;11.14;100.00;101147.06;4992246;28;20057;-60
2022/05/25 00:22:39;;;;;;;13.10;9.13;;;;;;;11.09;100.00;101146.50;4981928;28;20125;-60
2022/05/25 00:25:10;;;;;;;12.25;9.52;;;;;;;10.94;100.00;101147.47;4988403;28;20068;-60
2022/05/25 00:27:40;;;;;;;15.02;9.45;;;;;;;11.05;100.00;101152.88;4975051;28;20474;-60
2022/05/25 00:30:10;;;;;;;13.15;8.73;;;;;;;11.04;100.00;101155.63;4992340;28;20441;-60
2022/05/25 00:32:40;;;;;;;13.65;9.05;;;;;;;10.94;100.00;101156.19;4976201;28;20054;-61
2022/05/25 00:35:10;;;;;;;11.95;8.80;;;;;;;10.91;100.00;101151.13;4987673;28;20078;-60
2022/05/25 00:37:39;;;;;;;15.05;9.20;;;;;;;10.98;100.00;101151.59;4973684;28;20125;-60
2022/05/25 00:40:10;;;;;;;15.27;9.05;;;;;;;10.91;100.00;101159.00;4992405;28;20048;-61
2022/05/25 00:42:41;;;;;;;11.25;8.93;;;;;;;10.84;100.00;101152.44;4970856;28;20045;-62
2022/05/25 00:45:10;;;;;;;14.85;10.35;;;;;;;10.80;100.00;101143.06;4982742;28;20112;-60
2022/05/25 00:47:41;;;;;;;13.75;9.63;;;;;;;10.80;100.00;101158.84;4993099;28;20042;-61
2022/05/25 00:50:13;;;;;;;13.00;9.52;;;;;;;10.70;100.00;101160.31;4994547;28;20052;-61
2022/05/25 00:52:44;;;;;;;12.47;9.37;;;;;;;10.70;100.00;101163.78;4994323;28;20050;-60
2022/05/25 00:55:16;;;;;;;14.10;9.45;;;;;;;10.70;100.00;101161.16;4996311;28;20502;-61
2022/05/25 00:57:48;;;;;;;13.38;9.60;;;;;;;10.70;100.00;101168.22;4996015;28;20046;-60
2022/05/25 01:00:18;;;;;;;;;;;;;;;10.69;100.00;101170.00;4995716;28;20391;-60
2022/05/25 01:02:49;;;;;;;14.98;9.18;;;;;;;10.69;100.00;101172.63;4995057;28;19929;-60
2022/05/25 01:05:22;;;;;;;12.20;9.27;;;;;;;10.62;100.00;101172.16;4994951;28;20490;-60
2022/05/25 01:08:04;;;;;;;13.45;9.40;;;;;;;10.63;100.00;101176.50;4995870;28;20072;-59
2022/05/25 01:10:42;;;;;;;15.70;9.57;;;;;;;10.58;100.00;101183.81;4995358;28;20049;-60
2022/05/25 01:13:24;;;;;;;13.23;9.68;;;;;;;10.47;100.00;101178.31;4995157;28;20057;-60
2022/05/25 01:16:00;;;;;;;12.80;9.65;;;;;;;10.43;100.00;101174.19;4995386;28;20068;-60
2022/05/25 01:18:37;;;;;;;12.27;9.10;;;;;;;10.45;100.00;101169.69;4994802;28;20158;-60
2022/05/25 01:21:13;;;;;;;12.07;9.15;;;;;;;10.43;100.00;101169.78;4993386;28;20673;-60
2022/05/25 01:23:54;;;;;;;12.40;8.93;;;;;;;10.38;100.00;101174.47;4994865;28;20054;-59
2022/05/25 01:26:58;;;;;;;12.40;8.98;;;;;;;10.43;100.00;101175.03;4994464;28;20065;-59
2022/05/25 01:29:52;;;;;;;13.52;9.13;;;;;;;10.31;100.00;101178.38;4992247;28;20051;-59
2022/05/25 01:32:29;;;;;;;10.52;8.43;;;;;;;10.34;100.00;101182.59;4994742;28;20140;-59
2022/05/25 01:35:05;;;;;;;12.85;8.95;;;;;;;10.31;100.00;101184.47;4992097;28;20069;-60
2022/05/25 01:37:38;;;;;;;13.18;8.57;;;;;;;10.35;100.00;101184.31;4991656;28;20049;-61
2022/05/25 01:40:15;;;;;;;12.30;8.23;;;;;;;10.33;100.00;101187.00;4994766;28;20054;-61
2022/05/25 01:42:48;;;;;;;12.50;8.23;;;;;;;10.22;100.00;101189.41;4994143;28;20056;-61
2022/05/25 01:45:19;;;;;;;11.70;7.65;;;;;;;10.27;100.00;101185.56;4994130;28;20046;-61
2022/05/25 01:47:49;;;;;;;11.10;7.85;;;;;;;10.22;100.00;101184.16;4990999;28;20054;-61
2022/05/25 01:50:22;;;;;;;10.73;8.00;;;;;;;10.17;100.00;101184.44;4977820;28;20046;-61
2022/05/25 01:52:55;;;;;;;13.70;8.25;;;;;;;10.13;100.00;101198.69;4993217;28;20178;-61
2022/05/25 01:55:27;;;;;;;10.60;8.05;;;;;;;10.16;100.00;101185.34;4991123;28;20545;-61
2022/05/25 01:57:58;;;;;;;11.93;8.00;;;;;;;10.13;100.00;101201.31;4993157;28;20050;-60
2022/05/25 02:00:31;;;;;;;12.43;7.93;;;;;;;10.14;100.00;101184.59;4988009;28;20047;-60
2022/05/25 02:05:57;;;;;;;10.43;7.30;;;;;;;10.11;100.00;101192.66;4992368;28;20050;-61
2022/05/25 02:08:36;;;;;;;11.40;7.80;;;;;;;10.09;100.00;101192.75;4990374;28;20093;-61
2022/05/25 02:11:13;;;;;;;10.77;7.53;;;;;;;10.08;100.00;101198.09;4974720;28;20053;-61
2022/05/25 02:13:55;;;;;;;12.65;8.45;;;;;;;10.08;100.00;101195.47;4971466;28;20058;-61
2022/05/25 02:16:34;;;;;;;12.32;7.93;;;;;;;10.05;100.00;101204.38;4989916;28;20108;-60
2022/05/25 02:19:10;;;;;;;11.13;7.55;;;;;;;10.03;100.00;101203.59;4991546;28;20469;-61
2022/05/25 02:21:44;;;;;;;12.50;8.40;;;;;;;10.02;100.00;101198.44;4982158;28;20046;-60
2022/05/25 02:24:17;;;;;;;12.93;7.78;;;;;;;9.97;100.00;101199.53;4990258;28;20051;-61
2022/05/25 02:26:50;;;;;;;12.10;7.68;;;;;;;9.97;100.00;101194.28;4992898;28;20410;-60
2022/05/25 02:29:20;;;;;;;;;;;;;;;9.94;100.00;101202.34;4995822;28;20042;-60
2022/05/25 02:31:53;;;;;;;10.30;6.82;;;;;;;9.87;100.00;101201.03;4993102;28;19968;-59
2022/05/25 02:34:24;;;;;;;12.07;7.63;;;;;;;9.86;100.00;101209.81;4991874;28;20089;-60
2022/05/25 02:36:55;;;;;;;11.20;7.47;;;;;;;9.78;100.00;101206.78;4993227;28;20050;-60
2022/05/25 02:39:24;;;;;;;13.60;7.57;;;;;;;9.84;100.00;101216.09;4993935;28;20038;-59
2022/05/25 02:41:54;;;;;;;11.57;7.60;;;;;;;9.78;100.00;101212.03;4993883;28;20200;-59
2022/05/25 02:44:24;;;;;;;10.60;7.10;;;;;;;9.82;100.00;101205.69;4994028;28;20046;-60
2022/05/25 02:46:53;;;;;;;11.70;8.00;;;;;;;9.77;100.00;101208.53;4993953;28;20529;-60
2022/05/25 02:49:21;;;;;;;10.90;7.78;;;;;;;9.67;100.00;101210.00;4993242;28;20053;-61
2022/05/25 02:51:49;;;;;;;13.55;7.57;;;;;;;9.70;100.00;101222.97;4993536;28;20129;-60
2022/05/25 02:54:22;;;;;;;13.77;7.95;;;;;;;9.70;100.00;101222.13;4991192;28;20093;-61
2022/05/25 02:56:50;;;;;;;12.50;8.07;;;;;;;9.74;100.00;101221.84;4990872;28;20054;-61
2022/05/25 02:59:18;;;;;;;11.90;8.27;;;;;;;9.76;100.00;101216.50;4992939;28;20034;-61
2022/05/25 03:01:46;;;;;;;12.45;7.43;;;;;;;9.73;100.00;101222.78;4993465;28;20425;-61
2022/05/25 03:04:16;;;;;;;12.80;8.05;;;;;;;9.71;100.00;101227.28;4993565;28;20367;-60
2022/05/25 03:06:44;;;;;;;11.95;8.45;;;;;;;9.69;100.00;101226.50;4994330;28;20445;-61
2022/05/25 03:09:12;;;;;;;11.70;7.70;;;;;;;9.64;100.00;101232.03;4993487;28;20050;-61
2022/05/25 03:11:45;;;;;;;12.00;7.88;;;;;;;9.60;100.00;101232.28;4993974;28;20042;-60
2022/05/25 03:14:13;;;;;;;12.05;8.07;;;;;;;9.60;100.00;101238.38;4994218;28;20089;-60
2022/05/25 03:16:41;;;;;;;10.27;7.45;;;;;;;9.58;100.00;101242.03;4993469;28;20515;-60
2022/05/25 03:19:10;;;;;;;12.30;8.25;;;;;;;9.61;100.00;101242.72;4993342;28;20530;-60
2022/05/25 03:21:39;;;;;;;12.25;7.75;;;;;;;9.55;100.00;101244.81;4992736;28;20049;-61
2022/05/25 03:24:10;;;;;;;13.70;8.60;;;;;;;9.53;100.00;101247.53;4992330;28;20042;-61
2022/05/25 03:26:38;;;;;;;11.20;7.55;;;;;;;9.49;100.00;101246.00;4992468;28;20054;-61
2022/05/25 03:29:06;;;;;;;11.95;7.30;;;;;;;9.50;100.00;101247.69;4988568;28;20116;-61
2022/05/25 03:31:35;;;;;;;12.82;7.95;;;;;;;9.51;100.00;101246.75;4988861;28;20050;-61
2022/05/25 03:34:03;;;;;;;12.27;8.00;;;;;;;9.50;100.00;101252.94;4989730;28;20597;-61
2022/05/25 03:36:31;;;;;;;15.52;7.60;;;;;;;9.45;100.00;101254.97;4991033;28;20120;-61
2022/05/25 03:39:00;;;;;;;9.90;7.45;;;;;;;9.48;100.00;101262.69;4990789;28;20050;-61
2022/05/25 03:41:28;;;;;;;11.95;7.43;;;;;;;9.47;100.00;101258.34;4989362;28;20433;-61
2022/05/25 03:43:57;;;;;;;11.05;7.13;;;;;;;9.44;100.00;101255.91;4985615;28;20047;-60
2022/05/25 03:46:26;;;;;;;11.45;7.38;;;;;;;9.39;100.00;101263.16;4987185;28;20049;-60
2022/05/25 03:48:54;;;;;;;12.48;7.55;;;;;;;9.35;100.00;101266.88;4989839;28;20608;-60
2022/05/25 03:51:22;;;;;;;13.57;8.07;;;;;;;9.36;100.00;101271.22;4992016;28;20042;-60
2022/05/25 03:53:50;;;;;;;13.35;7.07;;;;;;;9.40;100.00;101270.97;4991512;28;20042;-60
2022/05/25 03:56:20;;;;;;;15.85;8.07;;;;;;;9.42;100.00;101270.88;4991596;28;20054;-60
2022/05/25 03:58:48;;;;;;;11.07;7.32;;;;;;;9.39;100.00;101271.88;4991680;28;20105;-61
2022/05/25 04:01:16;;;;;;;13.48;7.82;;;;;;;9.38;100.00;101271.97;4980717;28;20497;-61
2022/05/25 04:03:44;;;;;;;13.10;7.28;;;;;;;9.43;100.00;101273.41;4991263;28;20132;-60
2022/05/25 04:06:12;;;;;;;12.48;7.88;;;;;;;9.41;100.00;101270.03;4991758;28;20055;-60
2022/05/25 04:08:40;;;;;;;16.05;8.10;;;;;;;9.41;100.00;101269.19;4991464;28;20116;-60
2022/05/25 04:11:08;;;;;;;13.57;7.78;;;;;;;9.40;100.00;101267.50;4991882;28;20108;-61
2022/05/25 04:13:38;;;;;;;12.05;8.25;;;;;;;9.41;100.00;101264.78;4991657;28;20050;-61
2022/05/25 04:16:06;;;;;;;12.48;8.20;;;;;;;9.43;100.00;101270.78;4991756;28;20053;-60
2022/05/25 04:18:34;;;;;;;15.70;7.80;;;;;;;9.40;100.00;101273.59;4992053;28;20046;-60
2022/05/25 04:21:02;;;;;;;15.75;8.25;;;;;;;9.45;100.00;101275.97;4990400;28;20089;-61
2022/05/25 04:23:31;;;;;;;14.88;8.13;;;;;;;9.44;100.00;101275.13;4991457;28;20053;-60
2022/05/25 04:25:59;;;;;;;17.13;8.25;;;;;;;9.45;100.00;101273.34;4993202;28;20108;-61
2022/05/25 04:28:27;;;;;;;11.88;8.10;;;;;;;9.51;100.00;101273.00;4995318;28;20084;-60
2022/05/25 04:30:56;;;;;;;14.05;8.52;;;;;;;9.54;100.00;101270.22;4994605;28;20066;-61
2022/05/25 04:33:27;;;;;;;13.77;9.27;;;;;;;9.57;100.00;101266.56;4995958;28;20549;-61
2022/05/25 04:35:56;;;;;;;14.00;8.93;;;;;;;9.60;100.00;101276.94;4995515;28;20085;-60
2022/05/25 04:38:24;;;;;;;15.18;9.05;;;;;;;9.67;100.00;101277.41;4995122;28;20050;-60
2022/05/25 04:40:52;;;;;;;15.27;9.18;;;;;;;9.69;100.00;101276.41;4991640;28;20096;-60
2022/05/25 04:43:26;;;;;;;20.30;10.00;;;;;;;9.66;100.00;101271.34;4973544;28;20051;-61
2022/05/25 04:45:59;;;;;;;16.70;10.75;;;;;;;9.70;100.00;101287.78;4988228;28;20038;-60
2022/05/25 04:48:27;;;;;;;15.75;10.80;;;;;;;9.70;100.00;101283.38;4993837;28;20052;-61
2022/05/25 04:50:57;;;;;;;16.70;11.63;;;;;;;9.73;100.00;101282.34;4992099;28;20125;-60
2022/05/25 04:53:26;;;;;;;17.30;11.57;;;;;;;9.78;100.00;101275.06;4995047;28;20054;-60
2022/05/25 04:58:42;;;;;;;17.63;11.68;;;;;;;9.88;100.00;101286.75;4994575;28;20039;-60
2022/05/25 05:01:13;;;;;;;21.20;12.43;;;;;;;9.91;100.00;101291.88;4995442;28;20053;-62
2022/05/25 05:03:41;;;;;;;18.08;13.52;;;;;;;10.01;100.00;101299.22;4995212;28;20051;-61
2022/05/25 05:06:11;;;;;;;21.98;13.40;;;;;;;10.03;100.00;101298.19;4994687;28;20113;-61
2022/05/25 05:08:40;;;;;;;17.65;11.98;;;;;;;10.11;100.00;101289.91;4995085;28;20053;-61
2022/05/25 05:11:10;;;;;;;19.33;13.05;;;;;;;10.18;100.00;101291.25;4995099;28;20426;-61
2022/05/25 05:13:39;;;;;;;19.70;13.05;;;;;;;10.28;100.00;101291.56;4995032;28;20058;-60
2022/05/25 05:16:11;;;;;;;19.50;13.25;;;;;;;10.30;100.00;101287.91;4996260;28;20042;-60
2022/05/25 05:18:41;;;;;;;18.42;12.23;;;;;;;10.39;100.00;101285.72;4995642;28;20142;-61
2022/05/25 05:21:10;;;;;;;20.60;12.27;;;;;;;10.48;100.00;101283.44;4991131;28;20054;-61
2022/05/25 05:23:39;;;;;;;19.25;12.55;;;;;;;10.55;100.00;101294.44;4993487;28;20046;-61
2022/05/25 05:26:08;;;;;;;17.75;12.43;;;;;;;10.63;100.00;101289.59;4994683;28;20053;-61
2022/05/25 05:28:39;;;;;;;18.02;11.88;;;;;;;10.72;100.00;101288.19;4995170;28;20498;-61
2022/05/25 05:31:08;;;;;;;16.75;10.75;;;;;;;10.83;100.00;101295.47;4995169;28;20575;-60
2022/05/25 05:33:36;;;;;;;16.00;11.13;;;;;;;10.88;100.00;101296.03;4994172;28;20559;-61
2022/05/25 05:36:09;;;;;;;15.23;11.68;;;;;;;10.98;100.00;101291.91;4991306;28;20046;-59
2022/05/25 05:38:42;;;;;;;14.45;9.98;;;;;;;11.06;100.00;101288.81;4991490;28;20054;-61
2022/05/25 05:41:13;;;;;;;16.10;10.77;;;;;;;11.16;100.00;101289.09;4993231;28;20448;-61
2022/05/25 05:43:41;;;;;;;15.98;9.90;;;;;;;11.23;100.00;101293.06;4994125;28;20129;-61
2022/05/25 05:46:10;;;;;;;14.18;9.27;;;;;;;11.35;100.00;101286.19;4993716;28;20061;-60
2022/05/25 05:48:39;;;;;;;17.88;9.80;;;;;;;11.42;100.00;101291.94;4992115;28;20053;-61
2022/05/25 05:51:11;;;;;;;16.20;9.45;;;;;;;11.53;100.00;101297.38;4989768;28;20038;-60
2022/05/25 05:53:41;;;;;;;15.02;9.65;;;;;;;11.57;100.00;101288.34;4994270;28;20073;-62
2022/05/25 05:56:09;;;;;;;14.15;9.75;;;;;;;11.70;100.00;101293.72;4993737;28;20093;-62
2022/05/25 05:58:37;;;;;;;15.85;9.50;;;;;;;11.80;100.00;101292.19;4994974;28;20050;-61
2022/05/25 06:01:06;;;;;;;16.13;9.27;;;;;;;11.90;100.00;101291.59;4994594;28;20402;-61
2022/05/25 06:03:34;;;;;;;14.70;8.90;;;;;;;12.02;100.00;101295.28;4994116;28;20129;-61
2022/05/25 06:06:02;;;;;;;14.32;8.80;;;;;;;12.15;100.00;101291.75;4993687;28;20042;-61
2022/05/25 06:08:32;;;;;;;14.07;8.80;;;;;;;12.27;100.00;101298.03;4993675;28;20050;-60
2022/05/25 06:11:00;;;;;;;14.60;8.57;;;;;;;12.33;100.00;101292.34;4994937;28;20049;-61
2022/05/25 06:13:28;;;;;;;13.00;7.90;;;;;;;12.40;100.00;101290.13;4994419;28;20054;-61
2022/05/25 06:21:27;;;;;;;12.48;8.20;;;;;;;12.82;100.00;101300.59;4978693;28;20045;-62
2022/05/25 06:23:57;;;;;;;15.98;7.07;;;;;;;12.94;100.00;101301.53;4993876;28;20670;-61
2022/05/25 06:26:30;;;;;;;13.23;7.80;;;;;;;13.06;100.00;101307.78;4993671;28;20042;-60
2022/05/25 06:28:58;;;;;;;13.75;7.85;;;;;;;13.15;100.00;101307.16;4989479;28;20108;-61
2022/05/25 06:31:27;;;;;;;12.63;7.50;;;;;;;13.28;100.00;101305.38;4990698;28;20092;-61
2022/05/25 06:33:56;;;;;;;13.65;7.82;;;;;;;13.40;100.00;101301.03;4993599;28;20056;-61
2022/05/25 06:36:26;;;;;;;11.60;6.97;;;;;;;13.56;100.00;101297.34;4993557;28;20596;-61
2022/05/25 06:38:57;;;;;;;13.45;7.10;;;;;;;13.67;100.00;101303.56;4993494;28;20050;-61
2022/05/25 06:41:25;;;;;;;14.57;7.22;;;;;;;13.80;100.00;101307.97;4990365;28;20058;-62
2022/05/25 06:43:53;;;;;;;11.75;7.63;;;;;;;13.90;99.16;101316.91;4987844;28;20074;-61
2022/05/25 06:46:22;;;;;;;14.73;7.10;;;;;;;14.05;100.00;101317.63;4992674;28;20039;-61
2022/05/25 06:48:52;;;;;;;10.60;6.43;;;;;;;14.14;97.83;101313.47;4992278;28;20060;-61
2022/05/25 06:51:23;;;;;;;15.35;7.88;;;;;;;14.29;99.50;101319.41;4993164;28;20067;-62
2022/05/25 06:53:51;;;;;;;11.65;6.50;;;;;;;14.44;97.34;101320.09;4990650;28;20069;-62
2022/05/25 06:56:22;;;;;;;12.55;6.25;;;;;;;14.61;98.09;101322.34;4989463;28;20038;-61
2022/05/25 06:58:50;;;;;;;10.88;7.03;;;;;;;14.69;95.40;101324.44;4991774;28;20054;-61
2022/05/25 07:01:18;;;;;;;10.73;7.18;;;;;;;14.73;93.61;101319.78;4990111;28;20056;-60
2022/05/25 07:03:47;;;;;;;10.25;5.90;;;;;;;14.87;93.24;101327.50;4991767;28;20449;-61
2022/05/25 07:06:17;;;;;;;9.88;6.03;;;;;;;15.02;92.56;101330.78;4992798;28;20093;-61
2022/05/25 07:08:46;;;;;;;10.95;5.97;;;;;;;15.21;92.64;101330.22;4993072;28;20089;-60
2022/05/25 07:11:14;;;;;;;11.68;5.90;;;;;;;15.33;90.63;101336.38;4992959;28;20485;-60
2022/05/25 07:13:44;;;;;;;10.43;6.07;;;;;;;15.30;87.95;101337.47;4992734;28;20061;-61
2022/05/25 07:16:14;;;;;;;13.55;6.32;;;;;;;15.46;88.90;101341.56;4990827;28;20053;-61
2022/05/25 07:18:44;;;;;;;14.40;6.15;;;;;;;15.66;89.98;101343.50;4989972;28;20082;-59
2022/05/25 07:21:14;;;;;;;10.32;5.75;;;;;;;15.72;89.39;101344.84;4993151;28;20050;-61
2022/05/25 07:23:44;;;;;;;14.23;6.38;;;;;;;15.84;87.49;101343.03;4971482;28;20055;-60
2022/05/25 07:26:13;;;;;;;8.93;5.80;;;;;;;15.97;86.67;101338.44;4987941;28;20058;-61
2022/05/25 07:28:41;;;;;;;13.80;5.88;;;;;;;16.12;87.16;101346.16;4992115;28;20054;-61
2022/05/25 07:31:15;;;;;;;12.48;6.03;;;;;;;16.41;85.23;101345.59;4992111;28;20046;-61
2022/05/25 07:33:45;;;;;;;12.18;5.68;;;;;;;16.42;82.92;101349.94;4988881;28;20379;-61
2022/05/25 07:36:14;;;;;;;14.98;6.10;;;;;;;16.35;85.09;101355.72;4987550;28;20038;-60
2022/05/25 07:38:47;;;;;;;12.60;6.32;;;;;;;16.66;84.28;101350.56;4988138;28;20097;-61
2022/05/25 07:41:17;;;;;;;12.30;5.85;;;;;;;16.70;81.62;101351.13;4991594;28;20038;-61
2022/05/25 07:43:47;;;;;;;13.07;5.95;;;;;;;16.90;81.65;101352.16;4991690;28;20046;-61
2022/05/25 07:46:16;;;;;;;10.27;5.00;;;;;;;17.30;82.44;101359.41;4986788;28;20489;-61
2022/05/25 07:48:44;;;;;;;13.82;5.53;;;;;;;17.50;80.45;101359.50;4989038;28;20485;-62
2022/05/25 07:51:12;;;;;;;9.90;4.90;;;;;;;17.53;75.46;101362.75;4990801;28;20062;-62
2022/05/25 07:53:59;;;;;;;10.25;4.72;;;;;;;17.81;77.43;101362.16;4992485;28;20050;-62
2022/05/25 07:56:30;;;;;;;10.75;4.40;;;;;;;17.63;75.93;101361.91;4992479;28;20401;-62
2022/05/25 07:58:59;;;;;;;9.60;4.10;;;;;;;17.77;77.00;101366.06;4987759;28;20116;-62
2022/05/25 08:07:07;;;;;;;12.20;5.38;;;;;;;17.81;75.94;101372.81;4990509;28;20046;-63
2022/05/25 08:09:36;;;;;;;11.43;5.05;;;;;;;18.06;73.70;101369.69;4992995;28;20045;-63
2022/05/25 08:12:06;;;;;;;9.13;4.53;;;;;;;18.06;75.87;101368.81;4993446;28;20043;-64
2022/05/25 08:14:34;;;;;;;8.57;4.88;;;;;;;18.01;74.70;101371.06;4993562;28;20046;-63
2022/05/25 08:17:06;;;;;;;9.57;5.72;;;;;;;18.18;72.69;101372.22;4986674;28;20121;-61
2022/05/25 08:19:35;;;;;;;10.48;5.30;;;;;;;18.28;73.40;101373.06;4994566;28;20133;-64
2022/05/25 08:22:03;;;;;;;12.20;4.95;;;;;;;18.33;74.07;101370.84;4992671;28;20105;-62
2022/05/25 08:24:32;;;;;;;11.88;5.20;;;;;;;18.40;72.76;101376.47;4991080;28;20069;-60
2022/05/25 08:27:05;;;;;;;12.25;5.90;;;;;;;18.36;71.48;101372.41;4988210;28;20084;-61
2022/05/25 08:29:33;;;;;;;10.13;5.97;;;;;;;18.36;71.33;101369.72;4988282;28;20394;-61
2022/05/25 08:32:02;;;;;;;14.02;5.53;;;;;;;18.21;71.23;101361.28;4991995;28;20057;-62
2022/05/25 08:34:32;;;;;;;11.02;5.25;;;;;;;18.23;72.03;101362.84;4991772;28;20058;-61
2022/05/25 08:37:01;;;;;;;8.38;5.60;;;;;;;18.27;70.01;101363.44;4991675;28;20042;-61
2022/05/25 08:39:30;;;;;;;10.93;5.40;;;;;;;18.34;71.35;101363.72;4992038;28;20050;-62
2022/05/25 08:42:02;;;;;;;9.88;5.50;;;;;;;18.69;70.99;101359.66;4988475;28;20046;-61
2022/05/25 08:44:31;;;;;;;12.00;5.90;;;;;;;18.83;70.69;101350.38;4985220;28;20046;-61
2022/05/25 08:47:01;;;;;;;9.55;5.57;;;;;;;18.62;69.71;101355.88;4990935;28;20085;-62
2022/05/25 08:49:34;;;;;;;9.63;5.60;;;;;;;18.63;69.25;101353.06;4992243;28;20089;-62
2022/05/25 08:52:06;;;;;;;9.65;6.05;;;;;;;18.88;71.35;101351.69;4992466;28;20038;-60
2022/05/25 08:54:37;;;;;;;9.73;5.78;;;;;;;18.82;69.30;101359.38;4992046;28;20046;-61
2022/05/25 08:57:12;;;;;;;8.48;5.18;;;;;;;19.09;68.46;101361.34;4992239;28;20062;-62
2022/05/25 08:59:47;;;;;;;8.50;5.35;;;;;;;19.29;67.66;101353.28;4991876;28;20052;-62
2022/05/25 09:02:22;;;;;;;7.78;5.50;;;;;;;19.67;67.68;101357.63;4992200;28;20046;-61
2022/05/25 09:04:58;;;;;;;7.57;5.03;;;;;;;20.15;65.26;101352.22;4988224;28;20505;-62
2022/05/25 09:07:36;;;;;;;6.90;5.22;;;;;;;20.20;64.00;101358.78;4991496;28;20101;-62
2022/05/25 09:10:05;;;;;;;9.07;5.65;;;;;;;20.35;62.93;101361.75;4992419;28;20513;-61
2022/05/25 09:12:36;;;;;;;10.52;5.57;;;;;;;20.66;62.01;101369.41;4995672;28;20042;-59
2022/05/25 09:15:08;;;;;;;10.20;5.88;;;;;;;20.92;61.82;101357.97;4992102;28;20101;-59
2022/05/25 09:17:43;;;;;;;10.05;6.18;;;;;;;21.18;60.62;101359.81;4991280;28;20042;-60
2022/05/25 09:20:17;;;;;;;8.68;5.22;;;;;;;21.03;59.58;101363.03;4993203;28;20421;-60
2022/05/25 09:22:53;;;;;;;10.20;6.22;;;;;;;20.76;57.61;101364.88;4995462;28;20050;-62
2022/05/25 09:25:22;;;;;;;8.02;5.30;;;;;;;20.93;59.50;101368.50;4990061;28;20103;-63
2022/05/25 09:27:57;;;;;;;7.25;4.90;;;;;;;21.03;59.32;101364.88;4995045;28;20409;-62
2022/05/25 09:30:27;;;;;;;9.35;6.97;;;;;;;21.01;59.16;101362.38;4995736;28;20049;-63
2022/05/25 09:33:02;;;;;;;8.18;5.60;;;;;;;21.38;59.80;101365.78;4995931;28;20050;-63
2022/05/25 09:35:37;;;;;;;8.05;5.70;;;;;;;21.15;56.41;101376.19;4992583;28;20049;-62
2022/05/25 09:38:12;;;;;;;8.32;5.95;;;;;;;21.43;59.25;101371.47;4994480;28;20054;-63
2022/05/25 09:40:45;;;;;;;9.95;6.10;;;;;;;21.32;58.33;101371.75;4993799;28;20061;-62
2022/05/25 09:43:19;;;;;;;9.13;6.40;;;;;;;21.20;57.56;101380.06;4993637;28;20053;-60
2022/05/25 09:45:49;;;;;;;9.57;7.50;;;;;;;21.08;57.43;101382.13;4993830;28;20137;-63
2022/05/25 09:48:27;;;;;;;13.00;7.85;;;;;;;21.38;59.20;101381.84;4980075;28;20135;-59
2022/05/25 09:51:17;;;;;;;12.90;9.80;;;;;;;20.96;58.49;101386.06;4994287;28;20377;-61
2022/05/25 09:53:51;;;;;;;14.52;10.55;;;;;;;20.88;57.21;101396.69;4993778;28;20398;-59
2022/05/25 09:56:23;;;;;;;15.85;13.23;;;;;;;21.14;57.17;101402.06;4988591;28;20053;-62
2022/05/25 09:58:55;;;;;;;13.77;12.20;;;;;;;21.48;56.47;101403.13;4992597;28;20054;-59
2022/05/25 10:01:28;;;;;;;12.73;11.40;;;;;;;21.87;56.92;101397.31;4990235;28;20490;-60
2022/05/25 10:03:56;;;;;;;14.82;11.73;;;;;;;21.57;54.58;101399.53;4990191;28;20885;-60
2022/05/25 10:06:28;;;;;;;12.95;11.60;;;;;;;21.69;52.77;101395.59;4993057;28;20117;-59
2022/05/25 10:09:16;;;;;;;13.23;11.50;;;;;;;21.81;54.25;101393.44;4980809;28;20051;-63
2022/05/25 10:11:48;;;;;;;12.52;10.60;;;;;;;22.10;53.92;101386.84;4988940;28;20070;-63
2022/05/25 10:14:29;;;;;;;15.45;10.52;;;;;;;22.13;53.87;101391.91;4993673;28;20042;-63
2022/05/25 10:16:58;;;;;;;12.90;11.40;;;;;;;22.00;52.33;101397.72;4992714;28;20042;-59
2022/05/25 10:19:26;;;;;;;14.27;11.23;;;;;;;22.14;51.69;101398.09;4992802;28;20430;-62
2022/05/25 10:21:59;;;;;;;13.13;9.95;;;;;;;22.23;51.56;101391.75;4992810;28;20046;-62
2022/05/25 10:24:31;;;;;;;12.65;10.32;;;;;;;22.43;51.93;101397.72;4993636;28;20517;-62
2022/05/25 10:27:03;;;;;;;11.07;9.43;;;;;;;22.55;50.91;101396.38;4988228;28;20085;-62
2022/05/25 10:38:12;;;;;;;11.02;8.63;;;;;;;22.67;49.20;101388.84;4993291;28;20049;-61
2022/05/25 10:40:45;;;;;;;10.27;8.77;;;;;;;22.43;51.42;101393.16;4990076;28;20089;-60
2022/05/25 10:43:26;;;;;;;10.50;8.20;;;;;;;22.25;50.32;101384.38;4988223;28;20070;-60
2022/05/25 10:45:56;;;;;;;9.30;6.88;;;;;;;22.22;50.43;101379.38;4989524;28;20046;-63
2022/05/25 10:48:38;;;;;;;10.00;6.10;;;;;;;22.40;49.20;101379.25;4992447;28;20062;-63
2022/05/25 10:51:13;;;;;;;5.50;4.03;;;;;;;22.31;50.27;101382.91;4987293;28;20096;-60
2022/05/25 10:54:44;;;;;;;8.63;5.80;;;;;;;21.84;48.18;101376.22;4990879;28;20057;-61
2022/05/25 10:56:46;;;;;;;7.38;5.20;;;;;;;21.82;51.55;101368.38;4983019;28;20485;-61
2022/05/25 10:59:24;;;;;;;7.90;4.93;;;;;;;21.81;49.72;101355.16;4990181;28;20042;-62
2022/05/25 11:02:09;;;;;;;6.45;5.10;;;;;;;21.61;49.96;101358.09;4988493;28;20182;-60
2022/05/25 11:04:55;;;;;;;7.38;5.30;;;;;;;21.35;51.21;101361.59;4992520;28;20104;-61
2022/05/25 11:07:32;;;;;;;8.80;4.63;;;;;;;21.17;52.42;101369.66;4989217;28;20575;-62
2022/05/25 11:10:22;;;;;;;9.15;3.70;;;;;;;20.84;54.65;101369.41;4983800;28;20081;-62
2022/05/25 11:13:02;;;;;;;5.82;3.40;;;;;;;20.76;55.47;101374.69;4970003;28;20050;-62
2022/05/25 11:15:37;;;;;;;6.72;3.60;;;;;;;20.83;60.65;101383.75;4987076;28;20038;-61
2022/05/25 11:18:24;;;;;;;5.90;3.92;;;;;;;20.78;62.24;101388.75;4988221;28;20082;-61
2022/05/25 11:21:05;;;;;;;8.75;5.00;;;;;;;20.66;63.54;101384.63;4990227;28;20517;-62
2022/05/25 11:23:54;;;;;;;11.60;6.10;;;;;;;20.67;61.14;101376.44;4989205;28;20174;-62
2022/05/25 11:26:49;;;;;;;8.75;5.22;;;;;;;21.33;57.97;101376.13;4992578;28;20367;-62
2022/05/25 11:29:31;;;;;;;5.10;3.50;;;;;;;21.47;54.66;101366.66;4992864;28;20049;-62
2022/05/25 11:32:08;;;;;;;9.02;3.90;;;;;;;21.03;55.57;101367.56;4990650;28;20043;-58
2022/05/25 11:34:49;;;;;;;4.10;2.70;;;;;;;21.29;52.74;101375.59;4985949;28;20554;-59
2022/05/25 11:37:29;;;;;;;5.35;2.38;;;;;;;21.66;51.60;101365.63;4990592;28;20057;-59
2022/05/25 11:40:07;;;;;;;5.38;2.40;;;;;;;21.68;50.10;101372.50;4991488;28;20401;-60
2022/05/25 11:42:53;;;;;;;4.55;2.38;;;;;;;21.50;49.65;101366.34;4990903;28;20105;-60
2022/05/25 11:45:37;;;;;;;4.82;2.83;;;;;;;21.14;49.91;101361.13;4992455;28;20049;-61
2022/05/25 11:48:23;;;;;;;6.30;2.70;;;;;;;21.17;51.63;101366.16;4992647;28;20038;-62
2022/05/25 11:51:04;;;;;;;4.78;2.65;;;;;;;21.05;51.54;101355.72;4992659;28;20053;-61
2022/05/25 11:53:47;;;;;;;4.32;2.70;;;;;;;21.02;52.64;101365.88;4992398;28;20116;-61
2022/05/25 11:56:35;;;;;;;4.57;2.88;;;;;;;20.48;52.79;101364.06;4992575;28;20514;-62
2022/05/25 11:59:20;;;;;;;3.95;2.85;;;;;;;20.52;51.34;101364.59;4992184;28;20058;-62
2022/05/25 12:01:57;;;;;;;5.18;2.72;;;;;;;20.50;50.95;101371.94;4992734;28;20623;-62
2022/05/25 12:05:04;;;;;;;3.78;2.50;;;;;;;20.88;52.28;101368.13;4992392;28;20464;-61
2022/05/25 12:07:49;;;;;;;3.50;1.90;;;;;;;21.61;50.57;101358.09;4989819;28;20284;-61